This is the latest recevied weather packets stored in our database for station/object VK5GR-12. If no packets are shown the sender has not sent any weather packets the latest 10 day(s).
| Time | Temp. | Humidity | Pressure | Rain* | Wind** | Luminosity | Snow |
|---|---|---|---|---|---|---|---|
| 1777880669 | 16.11° C | 71% | 1016.7 hPa | 0 mm | - | 12 W/m² | - |
| 1777879769 | 16.67° C | 70% | 1016.6 hPa | 0 mm | - | 25 W/m² | - |
| 1777878866 | 16.67° C | 70% | 1016.3 hPa | 0 mm | - | 30 W/m² | - |
| 1777877961 | 16.67° C | 67% | 1016.2 hPa | 0 mm | - | 52 W/m² | - |
| 1777877059 | 17.22° C | 64% | 1016.1 hPa | 0 mm | - | 59 W/m² | - |
| 1777876155 | 17.78° C | 66% | 1015.9 hPa | 0 mm | - | 83 W/m² | - |
| 1777875250 | 17.78° C | 62% | 1015.7 hPa | 0 mm | - | 218 W/m² | - |
| 1777874346 | 18.33° C | 64% | 1015.6 hPa | 0 mm | - | 271 W/m² | - |
| 1777873444 | 17.78° C | 63% | 1015.5 hPa | 0 mm | - | 125 W/m² | - |
| 1777872541 | 18.89° C | 62% | 1015.3 hPa | 0 mm | - | 222 W/m² | - |
| 1777871638 | 19.44° C | 59% | 1015.1 hPa | 0 mm | - | 327 W/m² | - |
| 1777870735 | 19.44° C | 62% | 1015.1 hPa | 0 mm | - | 371 W/m² | - |
| 1777869830 | 18.89° C | 63% | 1014.9 hPa | 0 mm | - | 144 W/m² | - |
| 1777868927 | 18.89° C | 62% | 1014.7 hPa | 0 mm | - | 172 W/m² | - |
| 1777868022 | 17.78° C | 66% | 1014.7 hPa | 0 mm | - | 123 W/m² | - |
| 1777867117 | 18.33° C | 65% | 1014.8 hPa | 0 mm | - | 96 W/m² | - |
| 1777866216 | 18.33° C | 66% | 1014.6 hPa | 0 mm | - | 243 W/m² | - |
| 1777845447 | 13.89° C | 93% | 1012.4 hPa | 0 mm | - | 25 W/m² | - |
| 1777843642 | 13.89° C | 93% | 1012.3 hPa | 0 mm | - | 3 W/m² | - |
| 1777842739 | 13.89° C | 92% | 1011.9 hPa | 1.78 mm | - | 0 W/m² | - |
| 1777840033 | 13.89° C | 92% | 1011.4 hPa | 0 mm | - | 0 W/m² | - |
| 1777836423 | 13.89° C | 92% | 1011.3 hPa | 0 mm | - | 0 W/m² | - |
| 1777833714 | 13.89° C | 89% | 1010.9 hPa | 0 mm | - | 0 W/m² | - |
| 1777832811 | 13.89° C | 90% | 1011 hPa | 0 mm | - | 0 W/m² | - |
| 1777831909 | 13.89° C | 92% | 1011 hPa | 0 mm | - | 0 W/m² | - |
* Rain latest hour (hover to see other rain measurements)
** Current wind speed in m/s (hover to see current wind gust speed)